Main page
METAR-TAF:

METAR-TAF

Airports :

Lomé, Togo

Lomé–Tokoin International Airport

latitude: 06-10N, longitude: 001-15E, elevation: 20 m

Current weather observation

The report was made 33 minutes ago, at 02:00 UTC
Wind 6 kt from the Southwest
Temperature 24°C
Humidity 94%
Pressure 1014 hPa
Visibility 10 km or more
Few clouds at a height of 1000 ft
Scattered clouds at a height of 3000 ft

METAR: DXXX 260200Z 22006KT 9999 FEW010 SCT030 24/23 Q1014 NOSIG

Time: 02:33 (02:33 UTC)

Forecast

The report was made 3 hours and 33 minutes ago, at 23:00 UTC
Forecast valid from 26 at 00 UTC to 27 at 06 UTC
Wind 10 kt from the Southwest
Visibility 10 km or more
Scattered clouds at a height of 1000 ft
Broken clouds at a height of 2000 ft
Temporary
from 26 at 02 UTC to 26 at 11 UTC
Broken clouds at a height of 1000 ft
Broken clouds at a height of 2000 ft
Probability 40%
between 40 and 00 UTC
rain

TAF: DXXX 252300Z 2600/2706 22010KT 9999 SCT010 BKN020 TEMPO 2602/2611 BKN010 BKN020 PROB40 4000 RA

Weather observations and forecasts of more than 4000 airports (METAR and TAF reports).

The available stations are represented by yellow and red dots on the map.

Hover mouse over dot to see the name of the station.

Then click to see weather observations and forecasts.

To change the map : click on the green buttons with a black cross to zoom in, on the green button with a dash to zoom out, or on the green arrows for adjacent maps.


METAR-TAF: